Aérodrome :
LOGIN :

S'inscrire | Disclaimer

   EN    FR    IT 

 










Légende :    VFR   VFR Marginal   IFR   IFR Intensif   IFR Très Intensif
Visi : 
Plafond : 
>= 8 km
>= 3000ft
5 à 8 km
1000 à 3000 ft
1500m à 5 km
500 à 1000 ft
800 à 1500m
200 à 500 ft
< 800m
< 200 ft
Symboles :   Orages  Brouillard  Fortes neiges  Fortes précipitations  Vent > 20 kt
SIGMETs :   Divers  Orages  Givrage  Turbulence  Onde Orograph.  Cendres Volcan.






- Altitude de l'aérodrome : 614 ft
- Code IATA : CRL


EBCI - Charleroi

DERNIER METAR :
  • 231350Z 14003KT 110V170 9999 BKN016 04/01 Q1035 NOSIG

METARs EXPIRÉS :
  • 231320Z 11004KT 070V150 9999 BKN018 04/00 Q1035 NOSIG
  • 231250Z 12004KT 090V150 9000 BKN018 04/01 Q1035 NOSIG
  • 231220Z 15004KT 9000 BKN018 04/01 Q1035 NOSIG
  • 231150Z 16003KT 9000 BKN018 04/01 Q1036 NOSIG
  • 231120Z 16003KT 120V230 9000 BKN018 04/01 Q1036 NOSIG

TAF TAF EBCI
Valide du 23 à 12h jusqu'au 24 à 18h UTC


231107Z 2312/2418 VRB03KT 7000 SCT010 BKN018
PROB30
TEMPO 2400/2409 3000 MIFG BR



MET'MAP, la Météo Aéronautique d'un coup d'oeil ! - Copyright ORBIFLY Décembre 2007 - Disclaimer

ORBIFLY MET'MAP TEAM :

Programmation & Développement : Alexandra Zaïnal
Sur une idée originale de : Baudouin d'Aumeries
Assistance à la programmation : Marc-Olivier Méhu
Soutien technique & logistique : Manuel Goepfert

Contact : metmap@orbifly.com




SOURCES & CREDITS :

   NOAA